Hot Springs, SD (57747)

1:01 PM MST on January 27, 2015 (GMT -0700)
NonFedAWOS HOTSPRINGS SD US SUPERAWOS | Change Station
CLOSE
Current Station
Personal Weather Station
Location: Hot Springs, SD
Elevation: 3147 ft
Nearby Weather Stations

Elev 3147 ft 43.37 °N, 103.39 °W | Updated 46 minutes ago

Clear
Clear
70 °F
Feels Like 70 °F
N
12
Wind Variable Wind from WSW
Gusts 20.0 mph

Today
High -- | Low -- °F
--% Chance of Precip.
Yesterday
High -- | Low -- °F
Precip. -- in
7:15 AM 4:58 PM
First Quarter, 57% visible
Pressure 29.97 in
Visibility 10.0 miles
Clouds Clear
Dew Point 28 °F
Humidity 21%
Rainfall -999.00 in
Snow Depth Not available.
UV 3 out of 12
Pollen .10 out of 12
Air Quality Not available.
Flu Activity Not available.
METAR KCDR 271953Z AUTO 24004KT 10SM CLR 18/01 A2996 RMK AO2 SLP148 T01830006

More Conditions Fewer Conditions

Pressure 29.97 in
Visibility 10.0 miles
Clouds Clear
Dew Point 28 °F
Humidity 21%
Rainfall -999.00 in
Snow Depth Not available.
UV 3 out of 12
Pollen .10 out of 12
Air Quality Not available.
Flu Activity Not available.
METAR KCDR 271953Z AUTO 24004KT 10SM CLR 18/01 A2996 RMK AO2 SLP148 T01830006

More Conditions Fewer Conditions

10-Day Weather Forecast

Almanac

Astronomy

Jan. 27, 2015 Rise Set
Actual Time
Civil Twilight
Nautical Twilight
Astronomical Twilight
Moon
Length of Visible Light
Length of Day
Tomorrow will be .
, % of the Moon is Illuminated

Today's Extremes

State Highs State Lows

Community

WunderPhotos

Upload Photos

1,790,874 photos uploaded!

WunderBlogs® & News

Nearby

Air Quality

  Air Quality AQ Index Pollutant
Not available.

Snow Depth

Station Depth Elevation

Earthquake Activity

City Distance Mag. Time & Date
Minimum magnitude displayed is 2.5.

Coastal Water Temperatures

Place Temperature

Nearby Weather Stations